Карточка аэропорта UOOO

Внимание!
Информация на этой странице в стадии наполнения.
Если вы не увидели какой-то информации, или заметили неточность - пожалуйста сообщите нам!
Спасибо!
Команда RU-STAFF
Название аэропортаАлыкель
Название аэропорта (англ.)Alykel
Превышение574 ft. (175 m.)
Координаты69°19.02', 87°19.02'
Высота перехода1200m
Эшелон переходаQFE>744:FL60;744>QFE>717:FL70;717>QFE:FL80
Коды ответчика5401-5427
Зона ОрВДКрасноярск РПИ (UNKL)
Данные METARUOOO 042230Z 28003MPS 0200 R19/0800N FG VV003 00/00 Q1012 R19/39//36 NOSIG RMK QFE743/0990
Проноз погоды (TAF)UOOO 041956Z 0421/0521 25003MPS 0300 FZFG BKN002 BKN011CB TEMPO 0502/0505 1000 -SHSN BR SCT004 BKN013CB BECMG 0505/0507 6000 SCT005 BKN016CB TEMPO 0507/0518 1000 -SHSN BR BKN003 BKN011CB
NOTAMshow/hide NOTAM
AWOS   TABLE

Информация о ВПП

ВПП Длина ВПП (м.) Покрытие Курс ВПП Частота ILS
193430Бетон193110.3
013430Бетон13109.5

Диспетчерские позиции

Позывной Наименование органа УВД Частота
UOOO_GNDНорильск - Руление121.700
UOOO_TWRНорильск - Старт118.300
UOOO_APPНорильск - Круг120.400



Спутниковое изображение